createdAt,value
2018-02-06T00:00:26.186Z,98294.79
2018-02-06T00:00:57.809Z,98302.09
2018-02-06T00:01:29.430Z,98303.80
2018-02-06T00:02:01.057Z,98301.30
2018-02-06T00:02:32.684Z,98300.98
2018-02-06T00:03:04.313Z,98304.45
2018-02-06T00:03:35.941Z,98302.33
2018-02-06T00:04:07.571Z,98303.17
2018-02-06T00:04:39.198Z,98303.19
2018-02-06T00:05:10.866Z,98303.61
2018-02-06T00:05:42.494Z,98303.23
2018-02-06T00:06:14.174Z,98301.55
2018-02-06T00:06:45.793Z,98295.64
2018-02-06T00:07:17.422Z,98294.86
2018-02-06T00:07:49.050Z,98297.05
2018-02-06T00:08:20.682Z,98297.05
2018-02-06T00:08:52.306Z,98291.09
2018-02-06T00:09:23.936Z,98292.42
2018-02-06T00:09:55.614Z,98291.20
2018-02-06T00:10:27.247Z,98298.92
2018-02-06T00:10:58.870Z,98296.36
2018-02-06T00:11:30.493Z,98298.12
2018-02-06T00:12:02.114Z,98289.55
2018-02-06T00:12:33.742Z,98289.65
2018-02-06T00:13:05.370Z,98293.92
2018-02-06T00:13:36.993Z,98292.28
2018-02-06T00:14:08.614Z,98297.02
2018-02-06T00:14:40.241Z,98289.78
2018-02-06T00:15:11.914Z,98290.62
2018-02-06T00:15:43.538Z,98294.45
2018-02-06T00:16:15.165Z,98289.35
2018-02-06T00:16:46.793Z,98291.95
2018-02-06T00:17:18.426Z,98291.59
2018-02-06T00:17:50.061Z,98290.27
2018-02-06T00:18:21.685Z,98297.17
2018-02-06T00:18:53.305Z,98287.77
2018-02-06T00:19:24.928Z,98291.23
2018-02-06T00:19:56.549Z,98291.75
2018-02-06T00:20:28.215Z,98295.16
2018-02-06T00:20:59.872Z,98289.25
2018-02-06T00:21:31.506Z,98289.72
2018-02-06T00:22:03.126Z,98289.35
2018-02-06T00:22:34.749Z,98289.36
2018-02-06T00:23:06.369Z,98290.69
2018-02-06T00:23:37.991Z,98289.45
2018-02-06T00:24:09.614Z,98288.23
2018-02-06T00:24:41.241Z,98284.40
2018-02-06T00:25:12.862Z,98283.14
2018-02-06T00:25:44.486Z,98282.33
2018-02-06T00:26:16.110Z,98288.72
2018-02-06T00:26:47.737Z,98292.51
2018-02-06T00:27:19.405Z,98278.50
2018-02-06T00:27:51.034Z,98286.97
2018-02-06T00:28:22.662Z,98291.27
2018-02-06T00:28:54.290Z,98285.26
2018-02-06T00:29:26.126Z,98281.91
2018-02-06T00:29:57.755Z,98280.25
2018-02-06T00:30:29.377Z,98277.75
2018-02-06T00:31:01.029Z,98282.01
2018-02-06T00:31:32.658Z,98281.22
2018-02-06T00:32:04.286Z,98279.13
2018-02-06T00:32:35.914Z,98277.90
2018-02-06T00:33:07.537Z,98276.63
2018-02-06T00:33:39.157Z,98279.66
2018-02-06T00:34:10.791Z,98272.84
2018-02-06T00:34:42.486Z,98279.70
2018-02-06T00:35:14.113Z,98279.28
2018-02-06T00:35:45.738Z,98278.48
2018-02-06T00:36:17.361Z,98275.08
2018-02-06T00:36:48.990Z,98277.26
2018-02-06T00:37:20.616Z,98278.51
2018-02-06T00:37:52.246Z,98276.81
2018-02-06T00:38:23.882Z,98274.30
2018-02-06T00:38:55.506Z,98275.19
2018-02-06T00:39:27.134Z,98273.91
2018-02-06T00:39:58.805Z,98278.17
2018-02-06T00:40:30.433Z,98273.45
2018-02-06T00:41:02.058Z,98275.56
2018-02-06T00:41:33.681Z,98272.16
2018-02-06T00:42:05.313Z,98272.59
2018-02-06T00:42:36.938Z,98273.85
2018-02-06T00:43:08.566Z,98275.55
2018-02-06T00:43:40.234Z,98271.73
2018-02-06T00:44:11.861Z,98274.28
2018-02-06T00:44:43.485Z,98272.16
2018-02-06T00:45:15.113Z,98274.70
2018-02-06T00:45:46.789Z,98273.85
2018-02-06T00:46:18.410Z,98272.59
2018-02-06T00:46:50.035Z,98272.16
2018-02-06T00:47:21.658Z,98276.83
2018-02-06T00:47:53.285Z,98267.42
2018-02-06T00:48:24.912Z,98272.05
2018-02-06T00:48:56.533Z,98272.47
2018-02-06T00:49:28.153Z,98271.67
2018-02-06T00:49:59.777Z,98260.72
2018-02-06T00:50:31.397Z,98272.09
2018-02-06T00:51:03.058Z,98267.84
2018-02-06T00:51:34.681Z,98266.98
2018-02-06T00:52:06.301Z,98267.41
2018-02-06T00:52:37.932Z,98272.95
2018-02-06T00:53:09.586Z,98273.38
2018-02-06T00:53:41.213Z,98269.92
2018-02-06T00:54:12.834Z,98273.32
2018-02-06T00:54:44.457Z,98270.34
2018-02-06T00:55:16.090Z,98273.22
2018-02-06T00:55:47.758Z,98270.66
2018-02-06T00:56:19.378Z,98269.30
2018-02-06T00:56:51.046Z,98268.02
2018-02-06T00:57:22.673Z,98266.73
2018-02-06T00:57:54.297Z,98268.02
2018-02-06T00:58:25.918Z,98273.13
2018-02-06T00:58:58.226Z,98270.95
2018-02-06T00:59:29.846Z,98263.74
2018-02-06T01:00:01.465Z,98267.54
2018-02-06T01:00:33.091Z,98265.84
2018-02-06T01:01:04.713Z,98265.02
2018-02-06T01:01:36.338Z,98263.74
2018-02-06T01:02:08.006Z,98264.13
2018-02-06T01:02:39.629Z,98265.84
2018-02-06T01:03:11.258Z,98262.00
2018-02-06T01:03:42.890Z,98262.00
2018-02-06T01:04:14.521Z,98260.77
2018-02-06T01:04:46.145Z,98259.02
2018-02-06T01:05:17.769Z,98265.83
2018-02-06T01:05:49.389Z,98264.08
2018-02-06T01:06:21.049Z,98261.95
2018-02-06T01:06:52.674Z,98260.24
2018-02-06T01:07:24.302Z,98255.50
2018-02-06T01:07:55.926Z,98259.81
2018-02-06T01:08:27.545Z,98262.75
2018-02-06T01:08:59.173Z,98258.95
2018-02-06T01:09:30.857Z,98257.63
2018-02-06T01:10:02.483Z,98264.06
2018-02-06T01:10:34.105Z,98258.53
2018-02-06T01:11:05.734Z,98259.39
2018-02-06T01:11:37.356Z,98256.83
2018-02-06T01:12:08.982Z,98261.09
2018-02-06T01:12:40.602Z,98262.80
2018-02-06T01:13:12.221Z,98254.32
2018-02-06T01:13:43.846Z,98260.23
2018-02-06T01:14:15.473Z,98257.69
2018-02-06T01:14:47.105Z,98259.39
2018-02-06T01:15:18.769Z,98255.12
2018-02-06T01:15:50.389Z,98261.51
2018-02-06T01:16:22.010Z,98255.55
2018-02-06T01:16:53.634Z,98255.13
2018-02-06T01:17:25.253Z,98258.55
2018-02-06T01:17:56.873Z,98250.87
2018-02-06T01:18:28.493Z,98246.62
2018-02-06T01:19:00.118Z,98253.84
2018-02-06T01:19:31.761Z,98249.16
2018-02-06T01:20:03.386Z,98241.66
2018-02-06T01:20:35.057Z,98250.07
2018-02-06T01:21:06.686Z,98255.55
2018-02-06T01:21:38.314Z,98250.02
2018-02-06T01:22:09.942Z,98249.59
2018-02-06T01:22:41.570Z,98248.75
2018-02-06T01:23:13.190Z,98247.52
2018-02-06T01:23:44.813Z,98244.53
2018-02-06T01:24:16.442Z,98247.05
2018-02-06T01:24:48.070Z,98244.52
2018-02-06T01:25:19.698Z,98250.06
2018-02-06T01:25:51.386Z,98248.37
2018-02-06T01:26:23.009Z,98250.06
2018-02-06T01:26:54.638Z,98246.23
2018-02-06T01:27:26.261Z,98242.41
2018-02-06T01:27:57.882Z,98247.52
2018-02-06T01:28:29.510Z,98243.25
2018-02-06T01:29:01.138Z,98237.72
2018-02-06T01:29:32.762Z,98247.05
2018-02-06T01:30:04.382Z,98240.66
2018-02-06T01:30:36.011Z,98244.95
2018-02-06T01:31:07.682Z,98239.44
2018-02-06T01:31:39.302Z,98234.36
2018-02-06T01:32:10.930Z,98235.22
2018-02-06T01:32:42.557Z,98242.08
2018-02-06T01:33:14.178Z,98233.14
2018-02-06T01:33:45.811Z,98226.75
2018-02-06T01:34:17.429Z,98228.02
2018-02-06T01:34:49.059Z,98232.25
2018-02-06T01:35:20.681Z,98221.17
2018-02-06T01:35:52.301Z,98219.89
2018-02-06T01:36:24.023Z,98220.79
2018-02-06T01:36:55.650Z,98222.92
2018-02-06T01:37:27.273Z,98224.63
2018-02-06T01:37:58.910Z,98222.08
2018-02-06T01:38:30.529Z,98230.59
2018-02-06T01:39:02.150Z,98220.80
2018-02-06T01:39:33.770Z,98226.33
2018-02-06T01:40:05.397Z,98221.22
2018-02-06T01:40:37.017Z,98224.20
2018-02-06T01:41:08.646Z,98216.42
2018-02-06T01:41:40.318Z,98224.08
2018-02-06T01:42:11.941Z,98222.33
2018-02-06T01:42:43.574Z,98212.48
2018-02-06T01:43:15.202Z,98218.39
2018-02-06T01:43:46.829Z,98203.59
2018-02-06T01:44:18.457Z,98219.23
2018-02-06T01:44:50.086Z,98211.52
2018-02-06T01:45:21.713Z,98211.94
2018-02-06T01:45:53.342Z,98213.59
2018-02-06T01:46:24.966Z,98209.77
2018-02-06T01:46:56.590Z,98206.78
2018-02-06T01:47:28.213Z,98208.48
2018-02-06T01:47:59.833Z,98205.08
2018-02-06T01:48:31.453Z,98204.66
2018-02-06T01:49:03.086Z,98210.60
2018-02-06T01:49:34.710Z,98208.53
2018-02-06T01:50:06.386Z,98212.38
2018-02-06T01:50:38.006Z,98201.30
2018-02-06T01:51:09.635Z,98205.56
2018-02-06T01:51:41.260Z,98205.55
2018-02-06T01:52:12.886Z,98203.44
2018-02-06T01:52:44.509Z,98206.40
2018-02-06T01:53:16.129Z,98202.95
2018-02-06T01:53:47.754Z,98202.11
2018-02-06T01:54:19.374Z,98205.92
2018-02-06T01:54:51.001Z,98202.09
2018-02-06T01:55:22.674Z,98199.12
2018-02-06T01:55:54.293Z,98201.72
2018-02-06T01:56:25.918Z,98197.03
2018-02-06T01:56:57.543Z,98197.46
2018-02-06T01:57:29.161Z,98198.33
2018-02-06T01:58:00.792Z,98202.16
2018-02-06T01:58:32.445Z,98198.75
2018-02-06T01:59:04.074Z,98201.31
2018-02-06T01:59:35.698Z,98200.88
2018-02-06T02:00:07.321Z,98198.75
2018-02-06T02:00:38.994Z,98197.46
2018-02-06T02:01:10.622Z,98195.77
2018-02-06T02:01:42.242Z,98191.50
2018-02-06T02:02:13.861Z,98195.75
2018-02-06T02:02:45.481Z,98191.08
2018-02-06T02:03:17.102Z,98193.20
2018-02-06T02:03:48.732Z,98190.18
2018-02-06T02:04:20.362Z,98184.69
2018-02-06T02:04:51.985Z,98187.25
2018-02-06T02:05:23.614Z,98190.18
2018-02-06T02:05:55.285Z,98187.23
2018-02-06T02:06:26.914Z,98191.06
2018-02-06T02:06:58.538Z,98189.79
2018-02-06T02:07:30.157Z,98193.58
2018-02-06T02:08:01.777Z,98184.69
2018-02-06T02:08:33.397Z,98189.38
2018-02-06T02:09:05.025Z,98194.48
2018-02-06T02:09:36.654Z,98192.36
2018-02-06T02:10:08.277Z,98192.77
2018-02-06T02:10:39.908Z,98192.35
2018-02-06T02:11:11.534Z,98193.63
2018-02-06T02:11:43.198Z,98181.45
2018-02-06T02:12:14.822Z,98195.39
2018-02-06T02:12:46.449Z,98189.38
2018-02-06T02:13:18.114Z,98192.36
2018-02-06T02:13:49.734Z,98188.11
2018-02-06T02:14:21.353Z,98189.42
2018-02-06T02:14:52.973Z,98189.02
2018-02-06T02:15:24.594Z,98191.61
2018-02-06T02:15:56.213Z,98189.02
2018-02-06T02:16:27.837Z,98190.28
2018-02-06T02:16:59.461Z,98189.84
2018-02-06T02:17:31.134Z,98189.42
2018-02-06T02:18:02.805Z,98190.28
2018-02-06T02:18:34.426Z,98184.27
2018-02-06T02:19:06.046Z,98181.33
2018-02-06T02:19:37.669Z,98187.72
2018-02-06T02:20:09.290Z,98190.66
2018-02-06T02:20:40.917Z,98180.91
2018-02-06T02:21:12.539Z,98181.77
2018-02-06T02:21:44.162Z,98183.48
2018-02-06T02:22:15.786Z,98184.32
2018-02-06T02:22:47.409Z,98183.45
2018-02-06T02:23:19.091Z,98190.66
2018-02-06T02:23:50.713Z,98180.54
2018-02-06T02:24:22.346Z,98180.53
2018-02-06T02:24:53.965Z,98186.45
2018-02-06T02:25:25.590Z,98174.95
2018-02-06T02:25:57.262Z,98181.77
2018-02-06T02:26:28.885Z,98179.58
2018-02-06T02:27:00.516Z,98175.73
2018-02-06T02:27:32.147Z,98172.81
2018-02-06T02:28:03.778Z,98174.05
2018-02-06T02:28:35.406Z,98175.43
2018-02-06T02:29:07.030Z,98171.13
2018-02-06T02:29:38.650Z,98169.36
2018-02-06T02:30:10.271Z,98165.63
2018-02-06T02:30:41.898Z,98163.99
2018-02-06T02:31:13.518Z,98168.84
2018-02-06T02:31:45.150Z,98171.41
2018-02-06T02:32:16.781Z,98171.89
2018-02-06T02:32:48.407Z,98168.91
2018-02-06T02:33:20.031Z,98170.17
2018-02-06T02:33:51.658Z,98172.31
2018-02-06T02:34:23.286Z,98172.31
2018-02-06T02:34:54.957Z,98172.74
2018-02-06T02:35:26.586Z,98167.20
2018-02-06T02:35:58.205Z,98169.77
2018-02-06T02:36:29.826Z,98168.47
2018-02-06T02:37:01.458Z,98166.34
2018-02-06T02:37:33.087Z,98165.44
2018-02-06T02:38:04.709Z,98168.00
2018-02-06T02:38:36.338Z,98159.91
2018-02-06T02:39:07.962Z,98157.78
2018-02-06T02:39:39.581Z,98158.20
2018-02-06T02:40:11.258Z,98164.64
2018-02-06T02:40:42.952Z,98160.86
2018-02-06T02:41:14.541Z,98160.39
2018-02-06T04:38:43.390Z,98057.16
2018-02-06T04:39:15.018Z,98057.56
2018-02-06T04:39:46.641Z,98055.48
2018-02-06T04:40:18.309Z,98055.92
2018-02-06T04:40:49.985Z,98058.52
2018-02-06T04:41:21.606Z,98053.80
2018-02-06T04:41:53.229Z,98052.14
2018-02-06T04:42:24.849Z,98047.03
2018-02-06T04:42:56.474Z,98051.73
2018-02-06T04:43:28.098Z,98050.49
2018-02-06T04:43:59.717Z,98050.92
2018-02-06T04:44:31.350Z,98051.78
2018-02-06T04:45:03.075Z,98045.45
2018-02-06T04:45:34.713Z,98045.03
2018-02-06T04:46:06.394Z,98050.61
2018-02-06T04:46:38.017Z,98052.76
2018-02-06T04:47:09.646Z,98049.41
2018-02-06T04:47:41.265Z,98049.83
2018-02-06T04:48:12.884Z,98048.18
2018-02-06T04:48:44.510Z,98047.74
2018-02-06T04:49:16.149Z,98046.47
2018-02-06T04:49:47.781Z,98046.05
2018-02-06T04:50:19.406Z,98046.91
2018-02-06T04:50:51.109Z,98043.93
2018-02-06T04:51:22.733Z,98046.06
2018-02-06T04:51:54.353Z,98049.04
2018-02-06T04:52:25.977Z,98041.80
2018-02-06T04:52:57.597Z,98043.92
2018-02-06T04:53:29.222Z,98042.27
2018-02-06T04:54:00.845Z,98040.16
2018-02-06T04:54:32.469Z,98044.39
2018-02-06T04:55:04.089Z,98041.38
2018-02-06T04:55:35.709Z,98043.92
2018-02-06T04:56:07.377Z,98042.59
2018-02-06T04:56:39.001Z,98046.00
2018-02-06T04:57:10.626Z,98042.97
2018-02-06T04:57:42.250Z,98044.60
2018-02-06T04:58:13.869Z,98043.33
2018-02-06T04:58:45.493Z,98040.34
2018-02-06T04:59:17.112Z,98042.48
2018-02-06T04:59:48.737Z,98037.41
2018-02-06T05:00:20.357Z,98038.70
2018-02-06T05:00:51.977Z,98035.67
2018-02-06T05:01:23.606Z,98039.91
2018-02-06T05:01:55.229Z,98036.94
2018-02-06T05:02:26.851Z,98033.53
2018-02-06T05:02:58.477Z,98040.72
2018-02-06T05:03:30.097Z,98036.50
2018-02-06T05:04:01.721Z,98035.66
2018-02-06T05:04:33.341Z,98040.29
2018-02-06T05:05:04.966Z,98035.19
2018-02-06T05:05:36.633Z,98041.57
2018-02-06T05:06:08.261Z,98033.91
2018-02-06T05:06:39.921Z,98036.09
2018-02-06T05:07:11.541Z,98038.21
2018-02-06T05:07:43.166Z,98037.38
2018-02-06T05:08:14.790Z,98037.80
2018-02-06T05:08:46.418Z,98035.66
2018-02-06T05:09:18.046Z,98033.11
2018-02-06T05:09:49.669Z,98042.89
2018-02-06T05:10:21.289Z,98035.66
2018-02-06T05:10:52.915Z,98033.05
2018-02-06T05:11:24.537Z,98037.31
2018-02-06T05:11:56.199Z,98036.46
2018-02-06T05:12:27.826Z,98037.36
2018-02-06T05:12:59.454Z,98036.92
2018-02-06T05:13:31.073Z,98035.66
2018-02-06T05:14:02.702Z,98039.91
2018-02-06T05:14:34.331Z,98034.75
2018-02-06T05:15:05.953Z,98033.91
2018-02-06T05:15:37.581Z,98039.01
2018-02-06T05:16:09.202Z,98036.45
2018-02-06T05:16:40.822Z,98040.70
2018-02-06T05:17:12.493Z,98038.52
2018-02-06T05:17:44.117Z,98035.97
2018-02-06T05:18:15.742Z,98033.84
2018-02-06T05:18:47.370Z,98035.48
2018-02-06T05:19:18.998Z,98036.33
2018-02-06T05:19:50.621Z,98026.55
2018-02-06T05:20:22.250Z,98032.08
2018-02-06T05:20:53.882Z,98035.05
2018-02-06T05:21:25.509Z,98030.38
2018-02-06T05:21:57.133Z,98032.06
2018-02-06T05:22:28.794Z,98035.91
2018-02-06T05:23:00.413Z,98038.03
2018-02-06T05:23:32.040Z,98030.81
2018-02-06T05:24:03.710Z,98027.41
2018-02-06T05:24:35.333Z,98027.39
2018-02-06T05:25:06.953Z,98028.67
2018-02-06T05:25:38.577Z,98024.85
2018-02-06T05:26:10.206Z,98024.05
2018-02-06T05:26:41.845Z,98021.08
2018-02-06T05:27:13.470Z,98022.72
2018-02-06T05:27:45.122Z,98022.77
2018-02-06T05:28:16.750Z,98024.84
2018-02-06T05:28:48.373Z,98020.59
2018-02-06T05:29:20.042Z,98019.31
2018-02-06T05:29:51.674Z,98019.73
2018-02-06T05:30:23.297Z,98020.15
2018-02-06T05:30:54.927Z,98016.75
2018-02-06T05:31:26.551Z,98024.41
2018-02-06T05:31:58.177Z,98029.05
2018-02-06T05:32:29.801Z,98023.11
2018-02-06T05:33:01.422Z,98023.12
2018-02-06T05:33:33.046Z,98025.64
2018-02-06T05:34:04.674Z,98023.98
2018-02-06T05:34:36.344Z,98028.22
2018-02-06T05:35:07.975Z,98022.23
2018-02-06T05:35:39.599Z,98024.39
2018-02-06T05:36:11.218Z,98022.69
2018-02-06T05:36:42.841Z,98026.09
2018-02-06T05:37:14.470Z,98026.52
2018-02-06T05:37:46.089Z,98027.79
2018-02-06T05:38:17.717Z,98024.36
2018-02-06T05:38:49.337Z,98029.02
2018-02-06T05:39:21.005Z,98027.36
2018-02-06T05:39:52.633Z,98023.52
2018-02-06T05:40:24.261Z,98024.80
2018-02-06T05:40:55.885Z,98023.10
2018-02-06T05:41:27.509Z,98027.31
2018-02-06T05:41:59.137Z,98023.91
2018-02-06T05:42:30.766Z,98024.80
2018-02-06T05:43:02.386Z,98018.80
2018-02-06T05:43:34.010Z,98019.66
2018-02-06T05:44:05.633Z,98019.66
2018-02-06T05:44:37.301Z,98023.05
2018-02-06T05:45:08.930Z,98026.08
2018-02-06T05:45:40.563Z,98023.52
2018-02-06T05:46:12.226Z,98020.12
2018-02-06T05:46:43.845Z,98025.62
2018-02-06T05:47:15.470Z,98021.77
2018-02-06T05:47:47.089Z,98025.17
2018-02-06T05:48:18.713Z,98026.82
2018-02-06T05:48:50.334Z,98023.91
2018-02-06T05:49:22.018Z,98026.41
2018-02-06T05:49:53.641Z,98023.48
2018-02-06T05:50:25.274Z,98019.64
2018-02-06T05:50:56.902Z,98006.48
2018-02-06T05:51:28.534Z,98019.59
2018-02-06T05:52:00.166Z,98022.13
2018-02-06T05:52:31.789Z,98023.00
2018-02-06T05:53:03.418Z,98020.48
2018-02-06T05:53:35.048Z,98024.75
2018-02-06T05:54:06.669Z,98019.66
2018-02-06T05:54:38.322Z,98018.84
2018-02-06T05:55:09.950Z,98022.69
2018-02-06T05:55:41.573Z,98023.11
2018-02-06T05:56:13.202Z,98016.30
2018-02-06T05:56:44.831Z,98022.67
2018-02-06T05:57:16.549Z,98024.32
2018-02-06T05:57:48.173Z,98021.77
2018-02-06T05:58:19.794Z,98017.98
2018-02-06T05:58:51.416Z,98023.53
2018-02-06T05:59:23.042Z,98021.84
2018-02-06T05:59:54.670Z,98018.02
2018-02-06T06:00:26.298Z,98018.02
2018-02-06T06:00:57.926Z,98017.61
2018-02-06T06:01:29.549Z,98021.39
2018-02-06T06:02:01.205Z,98018.87
2018-02-06T06:02:32.826Z,98015.09
2018-02-06T06:03:04.446Z,98016.34
2018-02-06T06:03:36.102Z,98021.42
2018-02-06T06:04:07.762Z,98013.33
2018-02-06T06:04:39.430Z,98014.57
2018-02-06T06:05:11.062Z,98018.44
2018-02-06T06:05:42.690Z,98022.70
2018-02-06T06:06:14.309Z,98021.86
2018-02-06T06:06:45.929Z,98021.44
2018-02-06T06:07:17.555Z,98015.06
2018-02-06T06:07:49.182Z,98022.76
2018-02-06T06:08:20.806Z,98024.05
2018-02-06T06:08:52.433Z,98025.75
2018-02-06T06:09:24.057Z,98017.66
2018-02-06T06:09:55.725Z,98021.06
2018-02-06T06:10:27.350Z,98019.36
2018-02-06T06:10:59.018Z,98020.66
2018-02-06T06:11:30.641Z,98019.37
2018-02-06T06:12:02.266Z,98019.84
2018-02-06T06:12:33.898Z,98021.92
2018-02-06T06:13:05.522Z,98019.79
2018-02-06T06:13:37.142Z,98015.96
2018-02-06T06:14:08.761Z,98018.04
2018-02-06T06:14:40.386Z,98015.91
2018-02-06T06:15:12.006Z,98021.02
2018-02-06T06:15:43.633Z,98014.25
2018-02-06T06:16:15.253Z,98010.43
2018-02-06T06:16:46.873Z,98017.66
2018-02-06T06:17:18.501Z,98014.69
2018-02-06T06:17:50.122Z,98021.44
2018-02-06T06:18:21.752Z,98022.28
2018-02-06T06:18:53.378Z,98017.19
2018-02-06T06:19:25.001Z,98012.47
2018-02-06T06:19:56.625Z,98012.92
2018-02-06T06:20:28.302Z,98007.39
2018-02-06T06:20:59.939Z,98008.25
2018-02-06T06:21:31.571Z,98006.97
2018-02-06T06:22:03.197Z,98008.64
2018-02-06T06:22:34.819Z,98009.06
2018-02-06T06:23:06.454Z,98003.93
2018-02-06T06:23:38.077Z,98007.39
2018-02-06T06:24:09.701Z,98006.12
2018-02-06T06:24:41.326Z,98000.22
2018-02-06T06:25:12.950Z,97996.87
2018-02-06T06:25:44.626Z,98000.28
2018-02-06T06:26:16.245Z,98001.17
2018-02-06T06:26:47.875Z,98003.73
2018-02-06T06:27:19.501Z,97996.08
2018-02-06T06:27:51.130Z,97996.87
2018-02-06T06:28:22.749Z,98001.97
2018-02-06T06:28:54.372Z,98002.41
2018-02-06T06:29:25.998Z,97996.08
2018-02-06T06:29:57.622Z,97997.72
2018-02-06T06:30:29.246Z,97994.27
2018-02-06T06:31:00.913Z,97997.70
2018-02-06T06:31:32.539Z,97992.55
2018-02-06T06:32:04.218Z,97994.24
2018-02-06T06:32:35.841Z,97992.55
2018-02-06T06:33:07.470Z,97992.49
2018-02-06T06:33:39.094Z,97992.05
2018-02-06T06:34:10.718Z,97992.49
2018-02-06T06:34:42.341Z,97988.60
2018-02-06T06:35:13.965Z,97985.20
2018-02-06T06:35:45.593Z,97990.34
2018-02-06T06:36:17.228Z,97988.23
2018-02-06T06:36:48.849Z,97984.41
2018-02-06T06:37:20.477Z,97983.97
2018-02-06T06:37:52.101Z,97983.97
2018-02-06T06:38:23.729Z,97984.82
2018-02-06T06:38:55.350Z,97995.46
2018-02-06T06:39:26.978Z,97976.80
2018-02-06T06:39:58.663Z,97982.33
2018-02-06T06:40:30.290Z,97978.07
2018-02-06T06:41:01.919Z,97983.63
2018-02-06T06:41:33.547Z,97976.80
2018-02-06T06:42:05.169Z,97976.38
2018-02-06T06:42:36.798Z,97976.39
2018-02-06T06:43:08.417Z,97982.81
2018-02-06T06:43:40.038Z,97986.23
2018-02-06T06:44:11.662Z,97981.98
2018-02-06T06:44:43.281Z,97981.55
2018-02-06T06:45:14.941Z,97984.52
2018-02-06T06:45:46.565Z,97985.25
2018-02-06T06:46:18.197Z,97981.41
2018-02-06T06:46:49.866Z,97984.41
2018-02-06T06:47:21.485Z,97984.45
2018-02-06T06:47:53.110Z,97986.09
2018-02-06T06:48:24.742Z,97984.34
2018-02-06T06:48:56.365Z,97982.69
2018-02-06T06:49:27.994Z,97987.35
2018-02-06T06:49:59.675Z,97982.25
2018-02-06T06:50:31.298Z,97981.82
2018-02-06T06:51:02.922Z,97988.23
2018-02-06T06:51:34.550Z,97989.87
2018-02-06T06:52:06.181Z,97989.48
2018-02-06T06:52:37.801Z,97979.72
2018-02-06T06:53:09.422Z,97987.75
2018-02-06T06:53:41.041Z,97989.50
2018-02-06T06:54:12.661Z,97983.95
2018-02-06T06:54:44.286Z,97986.96
2018-02-06T06:55:15.950Z,97987.44
2018-02-06T06:55:47.618Z,97986.66
2018-02-06T06:56:19.246Z,97988.36
2018-02-06T06:56:50.870Z,97984.57
2018-02-06T06:57:22.498Z,97985.06
2018-02-06T06:57:54.118Z,97984.59
2018-02-06T06:58:25.746Z,97980.76
2018-02-06T06:58:57.374Z,97981.61
2018-02-06T06:59:28.998Z,97987.14
2018-02-06T07:00:00.669Z,97985.02
2018-02-06T07:00:32.297Z,97981.23
2018-02-06T07:01:03.958Z,97980.40
2018-02-06T07:01:35.581Z,97985.56
2018-02-06T07:02:07.201Z,97985.08
2018-02-06T07:02:38.823Z,97984.71
2018-02-06T07:03:10.450Z,97982.11
2018-02-06T07:03:42.070Z,97978.34
2018-02-06T07:04:13.698Z,97982.16
2018-02-06T07:04:45.317Z,97975.35
2018-02-06T07:05:16.978Z,97981.67
2018-02-06T07:05:48.622Z,97978.19
2018-02-06T07:06:20.249Z,97979.84
2018-02-06T07:06:51.870Z,97979.84
2018-02-06T07:07:23.489Z,97983.25
2018-02-06T07:07:55.114Z,97976.01
2018-02-06T07:08:26.734Z,97981.12
2018-02-06T07:08:58.366Z,97977.23
2018-02-06T07:09:29.990Z,97982.83
2018-02-06T07:10:01.609Z,97980.28
2018-02-06T07:10:33.274Z,97981.61
2018-02-06T07:11:04.897Z,97981.61
2018-02-06T07:11:36.538Z,97986.70
2018-02-06T07:12:08.157Z,97983.30
2018-02-06T07:12:39.782Z,97982.90
2018-02-06T07:13:11.594Z,97975.63
2018-02-06T07:13:43.217Z,97977.30
2018-02-06T07:14:14.846Z,97980.63
2018-02-06T07:14:46.474Z,97977.23
2018-02-06T07:15:18.150Z,97981.05
2018-02-06T07:15:49.769Z,97980.64
2018-02-06T07:16:21.402Z,97981.91
2018-02-06T07:16:53.034Z,97984.03
2018-02-06T07:17:24.662Z,97981.06
2018-02-06T07:17:56.286Z,97981.05
2018-02-06T07:18:27.906Z,97985.31
2018-02-06T07:18:59.525Z,97981.92
2018-02-06T07:19:31.146Z,97978.94
2018-02-06T07:20:02.770Z,97980.64
2018-02-06T07:20:34.441Z,97979.83
2018-02-06T07:21:06.065Z,97981.06
2018-02-06T07:21:37.685Z,97979.78
2018-02-06T07:22:09.313Z,97983.18
2018-02-06T07:22:40.942Z,97984.03
2018-02-06T07:23:12.565Z,97986.11
2018-02-06T07:23:44.186Z,97981.89
2018-02-06T07:24:15.814Z,97983.98
2018-02-06T07:24:47.442Z,97978.55
2018-02-06T07:25:19.070Z,97977.65
2018-02-06T07:25:50.725Z,97980.64
2018-02-06T07:26:22.350Z,97975.59
2018-02-06T07:26:53.977Z,97976.44
2018-02-06T07:27:25.598Z,97977.30
2018-02-06T07:27:57.221Z,97981.13
2018-02-06T07:28:28.841Z,97980.21
2018-02-06T07:29:00.461Z,97977.66
2018-02-06T07:29:32.133Z,97976.86
2018-02-06T07:30:03.757Z,97977.28
2018-02-06T07:30:35.386Z,97976.86
2018-02-06T07:31:07.014Z,97978.94
2018-02-06T07:31:38.637Z,97976.86
2018-02-06T07:32:10.257Z,97972.98
2018-02-06T07:32:41.881Z,97974.68
2018-02-06T07:33:13.510Z,97981.48
2018-02-06T07:33:45.129Z,97974.66
2018-02-06T07:34:16.758Z,97981.41
2018-02-06T07:34:48.417Z,97962.86
2018-02-06T07:35:20.046Z,97977.16
2018-02-06T07:35:51.669Z,97978.86
2018-02-06T07:36:23.290Z,97977.59
2018-02-06T07:36:54.917Z,97986.53
2018-02-06T07:37:26.546Z,97981.91
2018-02-06T07:37:58.210Z,97982.81
2018-02-06T07:38:29.834Z,97982.34
2018-02-06T07:39:01.462Z,97980.22
2018-02-06T07:39:33.081Z,97979.84
2018-02-06T07:40:04.701Z,97971.77
2018-02-06T07:40:36.326Z,97975.59
2018-02-06T07:41:07.996Z,97976.44
2018-02-06T07:41:39.626Z,97972.12
2018-02-06T07:42:11.253Z,97973.54
2018-02-06T07:42:42.882Z,97978.23
2018-02-06T07:43:14.502Z,97970.69
2018-02-06T07:43:46.121Z,97971.55
2018-02-06T07:44:17.751Z,97973.32
2018-02-06T07:44:49.378Z,97971.27
2018-02-06T07:45:20.998Z,97973.02
2018-02-06T07:45:52.679Z,97968.27
2018-02-06T07:46:24.306Z,97979.04
2018-02-06T07:46:55.929Z,97971.09
2018-02-06T07:47:27.558Z,97972.03
2018-02-06T07:47:59.181Z,97971.72
2018-02-06T07:48:30.802Z,97977.08
2018-02-06T07:49:02.426Z,97979.38
2018-02-06T07:49:34.050Z,97976.04
2018-02-06T07:50:05.677Z,97983.63
2018-02-06T07:50:37.306Z,97981.48
2018-02-06T07:51:08.974Z,97974.35
2018-02-06T07:51:40.603Z,97976.05
2018-02-06T07:52:12.233Z,97967.98
2018-02-06T07:52:43.881Z,97964.81
2018-02-06T07:53:15.515Z,97973.35
2018-02-06T07:53:47.178Z,97979.34
2018-02-06T07:54:18.885Z,97975.48
2018-02-06T07:54:50.587Z,97969.11
2018-02-06T07:55:22.218Z,97968.29
2018-02-06T07:55:53.841Z,97966.66
2018-02-06T07:56:25.466Z,97973.84
2018-02-06T07:56:57.093Z,97976.45
2018-02-06T07:57:28.730Z,97967.20
2018-02-06T07:58:00.538Z,97968.56
2018-02-06T07:58:32.165Z,97966.97
2018-02-06T07:59:03.802Z,97966.28
2018-02-06T07:59:35.425Z,97963.02
2018-02-06T08:00:07.051Z,97964.87
2018-02-06T08:00:38.673Z,97966.37
2018-02-06T08:01:10.294Z,97961.48
2018-02-06T08:01:41.951Z,97963.91
2018-02-06T08:02:13.573Z,97960.39
2018-02-06T08:02:45.195Z,97963.36
2018-02-06T08:03:16.858Z,97965.74
2018-02-06T08:03:48.477Z,97967.38
2018-02-06T08:04:20.101Z,97960.14
2018-02-06T08:04:51.722Z,97965.52
2018-02-06T08:05:23.342Z,97960.33
2018-02-06T08:05:54.961Z,97957.76
2018-02-06T08:06:26.586Z,97952.17
2018-02-06T08:06:58.246Z,97955.41
2018-02-06T08:07:29.874Z,97952.02
2018-02-06T08:08:01.497Z,97959.20
2018-02-06T08:08:33.121Z,97953.16